sensor_id;sensor_type;location;lat;lon;timestamp;temperature;humidity
13892;DHT22;7016;48.172;8.058;2023-02-18T00:01:17;11.60;99.90
13892;DHT22;7016;48.172;8.058;2023-02-18T00:03:43;11.60;99.90
13892;DHT22;7016;48.172;8.058;2023-02-18T00:08:41;11.60;99.90
13892;DHT22;7016;48.172;8.058;2023-02-18T00:11:07;11.60;99.90
13892;DHT22;7016;48.172;8.058;2023-02-18T00:13:35;11.50;99.90
13892;DHT22;7016;48.172;8.058;2023-02-18T00:16:06;11.60;99.90
13892;DHT22;7016;48.172;8.058;2023-02-18T00:18:32;11.60;99.90
13892;DHT22;7016;48.172;8.058;2023-02-18T00:20:58;11.50;99.90
13892;DHT22;7016;48.172;8.058;2023-02-18T00:23:25;11.50;99.90
13892;DHT22;7016;48.172;8.058;2023-02-18T00:25:59;11.50;99.90
13892;DHT22;7016;48.172;8.058;2023-02-18T00:28:25;11.50;99.90
13892;DHT22;7016;48.172;8.058;2023-02-18T00:30:51;11.50;99.90
13892;DHT22;7016;48.172;8.058;2023-02-18T00:33:17;11.60;99.90
13892;DHT22;7016;48.172;8.058;2023-02-18T00:35:42;11.50;99.90
13892;DHT22;7016;48.172;8.058;2023-02-18T00:38:08;11.60;99.90
13892;DHT22;7016;48.172;8.058;2023-02-18T00:40:37;11.70;99.90
13892;DHT22;7016;48.172;8.058;2023-02-18T00:43:03;11.60;99.90
13892;DHT22;7016;48.172;8.058;2023-02-18T00:45:28;11.60;99.90
13892;DHT22;7016;48.172;8.058;2023-02-18T00:47:54;11.60;99.90
13892;DHT22;7016;48.172;8.058;2023-02-18T00:50:20;11.60;99.90
13892;DHT22;7016;48.172;8.058;2023-02-18T00:52:46;11.60;99.90
13892;DHT22;7016;48.172;8.058;2023-02-18T00:55:11;11.50;99.90
13892;DHT22;7016;48.172;8.058;2023-02-18T00:57:37;11.50;99.90
13892;DHT22;7016;48.172;8.058;2023-02-18T01:00:04;11.60;99.90
13892;DHT22;7016;48.172;8.058;2023-02-18T01:02:30;11.50;99.90
13892;DHT22;7016;48.172;8.058;2023-02-18T01:04:59;11.50;99.90
13892;DHT22;7016;48.172;8.058;2023-02-18T01:07:25;11.50;99.90
13892;DHT22;7016;48.172;8.058;2023-02-18T01:09:51;11.40;99.90
13892;DHT22;7016;48.172;8.058;2023-02-18T01:12:17;11.40;99.90
13892;DHT22;7016;48.172;8.058;2023-02-18T01:14:42;11.40;99.90
13892;DHT22;7016;48.172;8.058;2023-02-18T01:17:08;11.40;99.90
13892;DHT22;7016;48.172;8.058;2023-02-18T01:19:34;11.40;99.90
13892;DHT22;7016;48.172;8.058;2023-02-18T01:22:00;11.50;99.90
13892;DHT22;7016;48.172;8.058;2023-02-18T01:24:26;11.50;99.90
13892;DHT22;7016;48.172;8.058;2023-02-18T01:26:51;11.40;99.90
13892;DHT22;7016;48.172;8.058;2023-02-18T01:29:17;11.40;99.90
13892;DHT22;7016;48.172;8.058;2023-02-18T01:31:43;11.30;99.90
13892;DHT22;7016;48.172;8.058;2023-02-18T01:34:08;11.40;99.90
13892;DHT22;7016;48.172;8.058;2023-02-18T01:36:34;11.30;99.90
13892;DHT22;7016;48.172;8.058;2023-02-18T01:39:00;11.40;99.90
13892;DHT22;7016;48.172;8.058;2023-02-18T01:41:25;11.40;99.90
13892;DHT22;7016;48.172;8.058;2023-02-18T01:44:15;11.40;99.90
13892;DHT22;7016;48.172;8.058;2023-02-18T01:46:41;11.30;99.90
13892;DHT22;7016;48.172;8.058;2023-02-18T01:49:07;11.40;99.90
13892;DHT22;7016;48.172;8.058;2023-02-18T01:51:39;11.40;99.90
13892;DHT22;7016;48.172;8.058;2023-02-18T01:54:15;11.40;99.90
13892;DHT22;7016;48.172;8.058;2023-02-18T01:56:59;11.30;99.90
13892;DHT22;7016;48.172;8.058;2023-02-18T01:59:36;11.40;99.90
13892;DHT22;7016;48.172;8.058;2023-02-18T02:02:02;11.30;99.90
13892;DHT22;7016;48.172;8.058;2023-02-18T02:04:28;11.30;99.90
13892;DHT22;7016;48.172;8.058;2023-02-18T02:06:54;11.30;99.90
13892;DHT22;7016;48.172;8.058;2023-02-18T02:09:21;11.30;99.90
13892;DHT22;7016;48.172;8.058;2023-02-18T02:17:36;11.30;99.90
13892;DHT22;7016;48.172;8.058;2023-02-18T02:31:34;11.40;99.90
13892;DHT22;7016;48.172;8.058;2023-02-18T02:36:59;11.30;99.90
13892;DHT22;7016;48.172;8.058;2023-02-18T02:42:35;11.40;99.90
13892;DHT22;7016;48.172;8.058;2023-02-18T02:53:04;11.40;99.90
13892;DHT22;7016;48.172;8.058;2023-02-18T02:55:30;11.40;99.90
13892;DHT22;7016;48.172;8.058;2023-02-18T02:57:56;11.40;99.90
13892;DHT22;7016;48.172;8.058;2023-02-18T03:00:36;11.40;99.90
13892;DHT22;7016;48.172;8.058;2023-02-18T03:08:44;11.30;99.90
13892;DHT22;7016;48.172;8.058;2023-02-18T03:11:15;11.30;99.90
13892;DHT22;7016;48.172;8.058;2023-02-18T03:13:48;11.40;99.90
13892;DHT22;7016;48.172;8.058;2023-02-18T03:19:38;11.30;99.90
13892;DHT22;7016;48.172;8.058;2023-02-18T03:22:15;11.40;99.90
13892;DHT22;7016;48.172;8.058;2023-02-18T03:24:45;11.40;99.90
13892;DHT22;7016;48.172;8.058;2023-02-18T03:27:33;11.40;99.90
13892;DHT22;7016;48.172;8.058;2023-02-18T03:30:27;11.40;99.90
13892;DHT22;7016;48.172;8.058;2023-02-18T03:33:04;11.50;99.90
13892;DHT22;7016;48.172;8.058;2023-02-18T03:35:39;11.40;99.90
13892;DHT22;7016;48.172;8.058;2023-02-18T03:38:15;11.50;99.90
13892;DHT22;7016;48.172;8.058;2023-02-18T03:40:42;11.50;99.90
13892;DHT22;7016;48.172;8.058;2023-02-18T03:43:08;11.50;99.90
13892;DHT22;7016;48.172;8.058;2023-02-18T03:45:34;11.50;99.90
13892;DHT22;7016;48.172;8.058;2023-02-18T03:48:00;11.50;99.90
13892;DHT22;7016;48.172;8.058;2023-02-18T03:50:25;11.50;99.90
13892;DHT22;7016;48.172;8.058;2023-02-18T03:52:54;11.50;99.90
13892;DHT22;7016;48.172;8.058;2023-02-18T03:55:20;11.50;99.90
13892;DHT22;7016;48.172;8.058;2023-02-18T03:57:45;11.50;99.90
13892;DHT22;7016;48.172;8.058;2023-02-18T04:00:11;11.50;99.90
13892;DHT22;7016;48.172;8.058;2023-02-18T04:02:37;11.50;99.90
13892;DHT22;7016;48.172;8.058;2023-02-18T04:05:03;11.50;99.90
13892;DHT22;7016;48.172;8.058;2023-02-18T04:07:29;11.50;99.90
13892;DHT22;7016;48.172;8.058;2023-02-18T04:09:55;11.50;99.90
13892;DHT22;7016;48.172;8.058;2023-02-18T04:12:20;11.60;99.90
13892;DHT22;7016;48.172;8.058;2023-02-18T04:14:46;11.40;99.90
13892;DHT22;7016;48.172;8.058;2023-02-18T04:17:12;11.50;99.90
13892;DHT22;7016;48.172;8.058;2023-02-18T04:19:37;11.40;99.90
13892;DHT22;7016;48.172;8.058;2023-02-18T04:22:03;11.40;99.90
13892;DHT22;7016;48.172;8.058;2023-02-18T04:24:29;11.40;99.90
13892;DHT22;7016;48.172;8.058;2023-02-18T04:26:55;11.50;99.90
13892;DHT22;7016;48.172;8.058;2023-02-18T04:29:20;11.50;99.90
13892;DHT22;7016;48.172;8.058;2023-02-18T04:31:46;11.50;99.90
13892;DHT22;7016;48.172;8.058;2023-02-18T04:34:12;11.40;99.90
13892;DHT22;7016;48.172;8.058;2023-02-18T04:36:37;11.40;99.90
13892;DHT22;7016;48.172;8.058;2023-02-18T04:39:03;11.50;99.90
13892;DHT22;7016;48.172;8.058;2023-02-18T04:41:29;11.50;99.90
13892;DHT22;7016;48.172;8.058;2023-02-18T04:43:54;11.40;99.90
13892;DHT22;7016;48.172;8.058;2023-02-18T04:46:20;11.40;99.90
13892;DHT22;7016;48.172;8.058;2023-02-18T04:48:46;11.40;99.90
13892;DHT22;7016;48.172;8.058;2023-02-18T04:51:12;11.40;99.90
13892;DHT22;7016;48.172;8.058;2023-02-18T04:53:37;11.40;99.90
13892;DHT22;7016;48.172;8.058;2023-02-18T04:56:04;11.40;99.90
13892;DHT22;7016;48.172;8.058;2023-02-18T04:58:30;11.40;99.90
13892;DHT22;7016;48.172;8.058;2023-02-18T05:01:00;11.40;99.90
13892;DHT22;7016;48.172;8.058;2023-02-18T05:03:26;11.40;99.90
13892;DHT22;7016;48.172;8.058;2023-02-18T05:05:54;11.40;99.90
13892;DHT22;7016;48.172;8.058;2023-02-18T05:08:19;11.40;99.90
13892;DHT22;7016;48.172;8.058;2023-02-18T05:10:45;11.40;99.90
13892;DHT22;7016;48.172;8.058;2023-02-18T05:13:11;11.40;99.90
13892;DHT22;7016;48.172;8.058;2023-02-18T05:15:36;11.40;99.90
13892;DHT22;7016;48.172;8.058;2023-02-18T05:18:02;11.40;99.90
13892;DHT22;7016;48.172;8.058;2023-02-18T05:22:54;11.50;99.90
13892;DHT22;7016;48.172;8.058;2023-02-18T05:25:20;11.40;99.90
13892;DHT22;7016;48.172;8.058;2023-02-18T05:27:46;11.40;99.90
13892;DHT22;7016;48.172;8.058;2023-02-18T05:30:12;11.40;99.90
13892;DHT22;7016;48.172;8.058;2023-02-18T05:32:37;11.50;99.90
13892;DHT22;7016;48.172;8.058;2023-02-18T05:35:03;11.50;99.90
13892;DHT22;7016;48.172;8.058;2023-02-18T05:37:29;11.40;99.90
13892;DHT22;7016;48.172;8.058;2023-02-18T05:39:55;11.50;99.90
13892;DHT22;7016;48.172;8.058;2023-02-18T05:42:21;11.50;99.90
13892;DHT22;7016;48.172;8.058;2023-02-18T05:44:48;11.50;99.90
13892;DHT22;7016;48.172;8.058;2023-02-18T05:47:13;11.50;99.90
13892;DHT22;7016;48.172;8.058;2023-02-18T05:49:41;11.50;99.90
13892;DHT22;7016;48.172;8.058;2023-02-18T05:52:08;11.50;99.90
13892;DHT22;7016;48.172;8.058;2023-02-18T05:54:35;11.50;99.90
13892;DHT22;7016;48.172;8.058;2023-02-18T05:57:00;11.40;99.90
13892;DHT22;7016;48.172;8.058;2023-02-18T05:59:26;11.50;99.90
13892;DHT22;7016;48.172;8.058;2023-02-18T06:01:52;11.50;99.90
13892;DHT22;7016;48.172;8.058;2023-02-18T06:04:18;11.40;99.90
13892;DHT22;7016;48.172;8.058;2023-02-18T06:06:45;11.40;99.90
13892;DHT22;7016;48.172;8.058;2023-02-18T06:09:11;11.40;99.90
13892;DHT22;7016;48.172;8.058;2023-02-18T06:11:37;11.50;99.90
13892;DHT22;7016;48.172;8.058;2023-02-18T06:14:03;11.50;99.90
13892;DHT22;7016;48.172;8.058;2023-02-18T06:16:32;11.20;99.90
13892;DHT22;7016;48.172;8.058;2023-02-18T06:18:58;11.50;99.90
13892;DHT22;7016;48.172;8.058;2023-02-18T06:21:24;11.50;99.90
13892;DHT22;7016;48.172;8.058;2023-02-18T06:23:50;11.50;99.90
13892;DHT22;7016;48.172;8.058;2023-02-18T06:26:16;11.50;99.90
13892;DHT22;7016;48.172;8.058;2023-02-18T06:28:42;11.40;99.90
13892;DHT22;7016;48.172;8.058;2023-02-18T06:31:07;11.40;99.90
13892;DHT22;7016;48.172;8.058;2023-02-18T06:33:33;11.40;99.90
13892;DHT22;7016;48.172;8.058;2023-02-18T06:36:05;11.40;99.90
13892;DHT22;7016;48.172;8.058;2023-02-18T06:38:33;11.40;99.90
13892;DHT22;7016;48.172;8.058;2023-02-18T06:40:58;11.40;99.90
13892;DHT22;7016;48.172;8.058;2023-02-18T06:43:24;11.50;99.90
13892;DHT22;7016;48.172;8.058;2023-02-18T06:45:50;11.50;99.90
13892;DHT22;7016;48.172;8.058;2023-02-18T06:48:16;11.50;99.90
13892;DHT22;7016;48.172;8.058;2023-02-18T06:50:42;11.50;99.90
13892;DHT22;7016;48.172;8.058;2023-02-18T06:53:08;11.50;99.90
13892;DHT22;7016;48.172;8.058;2023-02-18T06:55:33;11.50;99.90
13892;DHT22;7016;48.172;8.058;2023-02-18T06:57:59;11.50;99.90
13892;DHT22;7016;48.172;8.058;2023-02-18T07:00:25;11.50;99.90
13892;DHT22;7016;48.172;8.058;2023-02-18T07:02:51;11.50;99.90
13892;DHT22;7016;48.172;8.058;2023-02-18T07:05:16;11.40;99.90
13892;DHT22;7016;48.172;8.058;2023-02-18T07:07:43;11.50;99.90
13892;DHT22;7016;48.172;8.058;2023-02-18T07:10:09;11.50;99.90
13892;DHT22;7016;48.172;8.058;2023-02-18T07:12:35;11.50;99.90
13892;DHT22;7016;48.172;8.058;2023-02-18T07:15:01;11.50;99.90
13892;DHT22;7016;48.172;8.058;2023-02-18T07:17:26;11.50;99.90
13892;DHT22;7016;48.172;8.058;2023-02-18T07:19:52;11.50;99.90
13892;DHT22;7016;48.172;8.058;2023-02-18T07:22:20;11.50;99.90
13892;DHT22;7016;48.172;8.058;2023-02-18T07:24:50;11.50;99.90
13892;DHT22;7016;48.172;8.058;2023-02-18T07:27:17;11.50;99.90
13892;DHT22;7016;48.172;8.058;2023-02-18T07:29:43;11.50;99.90
13892;DHT22;7016;48.172;8.058;2023-02-18T07:32:11;11.50;99.90
13892;DHT22;7016;48.172;8.058;2023-02-18T07:34:37;11.60;99.90
13892;DHT22;7016;48.172;8.058;2023-02-18T07:37:03;11.60;99.90
13892;DHT22;7016;48.172;8.058;2023-02-18T07:39:34;11.60;99.90
13892;DHT22;7016;48.172;8.058;2023-02-18T07:42:02;11.60;99.90
13892;DHT22;7016;48.172;8.058;2023-02-18T07:44:28;11.60;99.90
13892;DHT22;7016;48.172;8.058;2023-02-18T07:46:54;11.70;99.90
13892;DHT22;7016;48.172;8.058;2023-02-18T07:49:20;11.70;99.90
13892;DHT22;7016;48.172;8.058;2023-02-18T07:51:49;11.70;99.90
13892;DHT22;7016;48.172;8.058;2023-02-18T07:56:45;11.80;99.90
13892;DHT22;7016;48.172;8.058;2023-02-18T07:59:12;11.80;99.90
13892;DHT22;7016;48.172;8.058;2023-02-18T08:01:39;11.70;99.90
13892;DHT22;7016;48.172;8.058;2023-02-18T08:04:06;11.70;99.90
13892;DHT22;7016;48.172;8.058;2023-02-18T08:06:58;11.80;99.90
13892;DHT22;7016;48.172;8.058;2023-02-18T08:09:24;11.90;99.90
13892;DHT22;7016;48.172;8.058;2023-02-18T08:11:49;11.80;99.90
13892;DHT22;7016;48.172;8.058;2023-02-18T08:14:15;11.90;99.90
13892;DHT22;7016;48.172;8.058;2023-02-18T08:16:41;11.90;99.90
13892;DHT22;7016;48.172;8.058;2023-02-18T08:19:06;11.90;99.90
13892;DHT22;7016;48.172;8.058;2023-02-18T08:21:33;11.80;99.90
13892;DHT22;7016;48.172;8.058;2023-02-18T08:23:59;11.80;99.90
13892;DHT22;7016;48.172;8.058;2023-02-18T08:26:25;11.90;99.90
13892;DHT22;7016;48.172;8.058;2023-02-18T08:28:51;11.90;99.90
13892;DHT22;7016;48.172;8.058;2023-02-18T08:31:25;11.90;99.90
13892;DHT22;7016;48.172;8.058;2023-02-18T08:33:52;11.90;99.90
13892;DHT22;7016;48.172;8.058;2023-02-18T08:36:18;11.90;99.90
13892;DHT22;7016;48.172;8.058;2023-02-18T08:38:44;11.90;99.90
13892;DHT22;7016;48.172;8.058;2023-02-18T08:41:10;11.90;99.90
13892;DHT22;7016;48.172;8.058;2023-02-18T08:43:36;12.00;99.90
13892;DHT22;7016;48.172;8.058;2023-02-18T08:46:02;11.90;99.90
13892;DHT22;7016;48.172;8.058;2023-02-18T08:48:28;12.00;99.90
13892;DHT22;7016;48.172;8.058;2023-02-18T08:50:54;12.00;99.90
13892;DHT22;7016;48.172;8.058;2023-02-18T08:53:20;11.90;99.90
13892;DHT22;7016;48.172;8.058;2023-02-18T08:55:46;12.00;99.90
13892;DHT22;7016;48.172;8.058;2023-02-18T08:58:12;12.00;99.90
13892;DHT22;7016;48.172;8.058;2023-02-18T09:00:38;12.00;99.90
13892;DHT22;7016;48.172;8.058;2023-02-18T09:03:04;12.00;99.90
13892;DHT22;7016;48.172;8.058;2023-02-18T09:05:30;11.90;99.90
13892;DHT22;7016;48.172;8.058;2023-02-18T09:07:56;12.00;99.90
13892;DHT22;7016;48.172;8.058;2023-02-18T09:10:23;12.00;99.90
13892;DHT22;7016;48.172;8.058;2023-02-18T09:12:48;12.00;99.90
13892;DHT22;7016;48.172;8.058;2023-02-18T09:15:15;11.90;99.90
13892;DHT22;7016;48.172;8.058;2023-02-18T09:17:41;12.00;99.90
13892;DHT22;7016;48.172;8.058;2023-02-18T09:20:07;12.00;99.90
13892;DHT22;7016;48.172;8.058;2023-02-18T09:22:33;12.00;99.90
13892;DHT22;7016;48.172;8.058;2023-02-18T09:24:58;12.10;99.90
13892;DHT22;7016;48.172;8.058;2023-02-18T09:27:24;12.00;99.90
13892;DHT22;7016;48.172;8.058;2023-02-18T09:29:50;12.00;99.90
13892;DHT22;7016;48.172;8.058;2023-02-18T09:32:16;12.10;99.90
13892;DHT22;7016;48.172;8.058;2023-02-18T09:34:43;12.10;99.90
13892;DHT22;7016;48.172;8.058;2023-02-18T09:37:10;12.10;99.90
13892;DHT22;7016;48.172;8.058;2023-02-18T09:39:36;12.10;99.90
13892;DHT22;7016;48.172;8.058;2023-02-18T09:42:04;12.00;99.90
13892;DHT22;7016;48.172;8.058;2023-02-18T09:44:35;12.00;99.90
13892;DHT22;7016;48.172;8.058;2023-02-18T09:49:39;11.90;99.90
13892;DHT22;7016;48.172;8.058;2023-02-18T09:52:32;11.90;99.90
13892;DHT22;7016;48.172;8.058;2023-02-18T09:54:58;12.00;99.90
13892;DHT22;7016;48.172;8.058;2023-02-18T09:57:28;12.00;99.90
13892;DHT22;7016;48.172;8.058;2023-02-18T10:00:04;12.10;99.90
13892;DHT22;7016;48.172;8.058;2023-02-18T10:02:33;12.10;99.90
13892;DHT22;7016;48.172;8.058;2023-02-18T10:04:59;12.10;99.90
13892;DHT22;7016;48.172;8.058;2023-02-18T10:07:28;12.10;99.90
13892;DHT22;7016;48.172;8.058;2023-02-18T10:09:56;12.30;99.90
13892;DHT22;7016;48.172;8.058;2023-02-18T10:12:25;12.30;99.90
13892;DHT22;7016;48.172;8.058;2023-02-18T10:14:57;12.40;99.90
13892;DHT22;7016;48.172;8.058;2023-02-18T10:17:27;12.40;99.90
13892;DHT22;7016;48.172;8.058;2023-02-18T10:19:55;12.30;99.90
13892;DHT22;7016;48.172;8.058;2023-02-18T10:22:23;12.40;99.90
13892;DHT22;7016;48.172;8.058;2023-02-18T10:24:58;12.30;99.90
13892;DHT22;7016;48.172;8.058;2023-02-18T10:27:33;12.30;99.90
13892;DHT22;7016;48.172;8.058;2023-02-18T10:32:54;12.30;99.90
13892;DHT22;7016;48.172;8.058;2023-02-18T10:35:39;12.40;99.90
13892;DHT22;7016;48.172;8.058;2023-02-18T10:51:54;12.50;99.90
13892;DHT22;7016;48.172;8.058;2023-02-18T10:54:25;12.50;99.90
13892;DHT22;7016;48.172;8.058;2023-02-18T10:56:52;12.50;99.90
13892;DHT22;7016;48.172;8.058;2023-02-18T10:59:23;12.50;99.90
13892;DHT22;7016;48.172;8.058;2023-02-18T11:01:59;12.50;99.90
13892;DHT22;7016;48.172;8.058;2023-02-18T11:04:36;12.50;99.90
13892;DHT22;7016;48.172;8.058;2023-02-18T11:07:07;12.50;99.90
13892;DHT22;7016;48.172;8.058;2023-02-18T11:09:45;12.50;99.90
13892;DHT22;7016;48.172;8.058;2023-02-18T11:12:49;12.50;99.90
13892;DHT22;7016;48.172;8.058;2023-02-18T11:15:21;12.50;99.90
13892;DHT22;7016;48.172;8.058;2023-02-18T11:17:51;12.50;99.90
13892;DHT22;7016;48.172;8.058;2023-02-18T11:22:48;12.60;99.90
13892;DHT22;7016;48.172;8.058;2023-02-18T11:25:21;12.60;99.90
13892;DHT22;7016;48.172;8.058;2023-02-18T11:27:56;12.60;99.90
13892;DHT22;7016;48.172;8.058;2023-02-18T11:32:55;12.60;99.90
13892;DHT22;7016;48.172;8.058;2023-02-18T11:35:23;12.60;99.90
13892;DHT22;7016;48.172;8.058;2023-02-18T11:37:50;12.60;99.90
13892;DHT22;7016;48.172;8.058;2023-02-18T11:40:29;12.60;99.90
13892;DHT22;7016;48.172;8.058;2023-02-18T11:45:31;12.60;99.90
13892;DHT22;7016;48.172;8.058;2023-02-18T11:48:00;12.60;99.90
13892;DHT22;7016;48.172;8.058;2023-02-18T11:50:30;12.60;99.90
13892;DHT22;7016;48.172;8.058;2023-02-18T11:52:57;12.50;99.90
13892;DHT22;7016;48.172;8.058;2023-02-18T11:55:26;12.70;99.90
13892;DHT22;7016;48.172;8.058;2023-02-18T11:57:59;12.70;99.90
13892;DHT22;7016;48.172;8.058;2023-02-18T12:00:37;12.70;99.90
13892;DHT22;7016;48.172;8.058;2023-02-18T12:03:08;12.70;99.90
13892;DHT22;7016;48.172;8.058;2023-02-18T12:05:38;12.80;99.90
13892;DHT22;7016;48.172;8.058;2023-02-18T12:08:26;12.80;99.90
13892;DHT22;7016;48.172;8.058;2023-02-18T12:11:05;12.70;99.90
13892;DHT22;7016;48.172;8.058;2023-02-18T12:13:35;12.70;99.90
13892;DHT22;7016;48.172;8.058;2023-02-18T12:18:56;12.70;99.90
13892;DHT22;7016;48.172;8.058;2023-02-18T12:29:55;12.60;99.90
13892;DHT22;7016;48.172;8.058;2023-02-18T12:41:39;12.80;99.90
13892;DHT22;7016;48.172;8.058;2023-02-18T12:53:00;12.80;99.90
13892;DHT22;7016;48.172;8.058;2023-02-18T13:03:23;12.80;99.90
13892;DHT22;7016;48.172;8.058;2023-02-18T13:06:32;12.80;99.90
13892;DHT22;7016;48.172;8.058;2023-02-18T13:18:00;12.90;99.90
13892;DHT22;7016;48.172;8.058;2023-02-18T13:23:01;13.00;99.90
13892;DHT22;7016;48.172;8.058;2023-02-18T13:25:27;13.10;99.90
13892;DHT22;7016;48.172;8.058;2023-02-18T13:30:44;13.10;99.90
13892;DHT22;7016;48.172;8.058;2023-02-18T13:36:21;13.00;99.90
13892;DHT22;7016;48.172;8.058;2023-02-18T13:41:18;13.00;99.90
13892;DHT22;7016;48.172;8.058;2023-02-18T13:43:44;13.10;99.90
13892;DHT22;7016;48.172;8.058;2023-02-18T13:48:51;13.00;99.90
13892;DHT22;7016;48.172;8.058;2023-02-18T13:51:30;13.00;99.90
13892;DHT22;7016;48.172;8.058;2023-02-18T13:56:32;13.10;99.90
13892;DHT22;7016;48.172;8.058;2023-02-18T14:01:40;13.20;99.90
13892;DHT22;7016;48.172;8.058;2023-02-18T14:09:58;13.10;99.90
13892;DHT22;7016;48.172;8.058;2023-02-18T14:33:58;13.40;99.90
13892;DHT22;7016;48.172;8.058;2023-02-18T14:36:32;13.40;99.90
13892;DHT22;7016;48.172;8.058;2023-02-18T14:42:16;13.40;99.90
13892;DHT22;7016;48.172;8.058;2023-02-18T14:50:18;13.30;99.90
13892;DHT22;7016;48.172;8.058;2023-02-18T14:52:48;13.40;99.90
13892;DHT22;7016;48.172;8.058;2023-02-18T14:57:50;13.40;99.90
13892;DHT22;7016;48.172;8.058;2023-02-18T15:00:23;13.40;99.90
13892;DHT22;7016;48.172;8.058;2023-02-18T15:02:53;13.40;99.90
13892;DHT22;7016;48.172;8.058;2023-02-18T15:05:22;13.40;99.90
13892;DHT22;7016;48.172;8.058;2023-02-18T15:10:21;13.40;99.90
13892;DHT22;7016;48.172;8.058;2023-02-18T15:12:47;13.40;99.90
13892;DHT22;7016;48.172;8.058;2023-02-18T15:15:14;13.40;99.90
13892;DHT22;7016;48.172;8.058;2023-02-18T15:17:47;13.40;99.90
13892;DHT22;7016;48.172;8.058;2023-02-18T15:20:14;13.50;99.90
13892;DHT22;7016;48.172;8.058;2023-02-18T15:22:41;13.50;99.90
13892;DHT22;7016;48.172;8.058;2023-02-18T15:25:10;13.50;99.90
13892;DHT22;7016;48.172;8.058;2023-02-18T15:27:40;13.50;99.90
13892;DHT22;7016;48.172;8.058;2023-02-18T15:30:25;13.50;99.90
13892;DHT22;7016;48.172;8.058;2023-02-18T15:32:58;13.60;99.90
13892;DHT22;7016;48.172;8.058;2023-02-18T15:35:29;13.50;99.90
13892;DHT22;7016;48.172;8.058;2023-02-18T15:37:58;13.50;99.90
13892;DHT22;7016;48.172;8.058;2023-02-18T15:40:33;13.40;99.90
13892;DHT22;7016;48.172;8.058;2023-02-18T15:43:03;13.40;99.90
13892;DHT22;7016;48.172;8.058;2023-02-18T15:45:33;13.40;99.90
13892;DHT22;7016;48.172;8.058;2023-02-18T15:48:00;13.40;99.90
13892;DHT22;7016;48.172;8.058;2023-02-18T15:50:32;13.40;99.90
13892;DHT22;7016;48.172;8.058;2023-02-18T15:53:05;13.40;99.90
13892;DHT22;7016;48.172;8.058;2023-02-18T15:55:39;13.40;99.90
13892;DHT22;7016;48.172;8.058;2023-02-18T15:58:23;13.40;99.90
13892;DHT22;7016;48.172;8.058;2023-02-18T16:00:52;13.40;99.90
13892;DHT22;7016;48.172;8.058;2023-02-18T16:03:24;13.40;99.90
13892;DHT22;7016;48.172;8.058;2023-02-18T16:06:21;13.50;99.90
13892;DHT22;7016;48.172;8.058;2023-02-18T16:09:12;13.40;99.90
13892;DHT22;7016;48.172;8.058;2023-02-18T16:11:42;13.40;99.90
13892;DHT22;7016;48.172;8.058;2023-02-18T16:22:33;13.40;99.90
13892;DHT22;7016;48.172;8.058;2023-02-18T16:25:00;13.30;99.90
13892;DHT22;7016;48.172;8.058;2023-02-18T16:27:33;13.30;99.90
13892;DHT22;7016;48.172;8.058;2023-02-18T16:30:06;13.30;99.90
13892;DHT22;7016;48.172;8.058;2023-02-18T16:32:38;13.30;99.90
13892;DHT22;7016;48.172;8.058;2023-02-18T16:35:04;13.30;99.90
13892;DHT22;7016;48.172;8.058;2023-02-18T16:37:30;13.20;99.90
13892;DHT22;7016;48.172;8.058;2023-02-18T16:40:27;13.30;99.90
13892;DHT22;7016;48.172;8.058;2023-02-18T16:42:56;13.30;99.90
13892;DHT22;7016;48.172;8.058;2023-02-18T16:45:35;13.30;99.90
13892;DHT22;7016;48.172;8.058;2023-02-18T16:48:02;13.30;99.90
13892;DHT22;7016;48.172;8.058;2023-02-18T16:50:29;13.20;99.90
13892;DHT22;7016;48.172;8.058;2023-02-18T16:52:56;13.20;99.90
13892;DHT22;7016;48.172;8.058;2023-02-18T16:55:24;13.20;99.90
13892;DHT22;7016;48.172;8.058;2023-02-18T16:57:50;13.10;99.90
13892;DHT22;7016;48.172;8.058;2023-02-18T17:00:17;13.20;99.90
13892;DHT22;7016;48.172;8.058;2023-02-18T17:02:52;13.20;99.90
13892;DHT22;7016;48.172;8.058;2023-02-18T17:05:21;13.20;99.90
13892;DHT22;7016;48.172;8.058;2023-02-18T17:07:47;13.20;99.90
13892;DHT22;7016;48.172;8.058;2023-02-18T17:10:13;13.20;99.90
13892;DHT22;7016;48.172;8.058;2023-02-18T17:12:39;13.10;99.90
13892;DHT22;7016;48.172;8.058;2023-02-18T17:15:27;13.10;99.90
13892;DHT22;7016;48.172;8.058;2023-02-18T17:17:53;13.00;99.90
13892;DHT22;7016;48.172;8.058;2023-02-18T17:20:20;13.00;99.90
13892;DHT22;7016;48.172;8.058;2023-02-18T17:22:45;13.00;99.90
13892;DHT22;7016;48.172;8.058;2023-02-18T17:25:16;13.10;99.90
13892;DHT22;7016;48.172;8.058;2023-02-18T17:27:43;13.10;99.90
13892;DHT22;7016;48.172;8.058;2023-02-18T17:30:09;13.00;99.90
13892;DHT22;7016;48.172;8.058;2023-02-18T17:32:35;13.00;99.90
13892;DHT22;7016;48.172;8.058;2023-02-18T17:35:01;13.00;99.90
13892;DHT22;7016;48.172;8.058;2023-02-18T17:37:26;13.00;99.90
13892;DHT22;7016;48.172;8.058;2023-02-18T17:39:52;12.90;99.90
13892;DHT22;7016;48.172;8.058;2023-02-18T17:42:18;12.90;99.90
13892;DHT22;7016;48.172;8.058;2023-02-18T17:44:45;12.90;99.90
13892;DHT22;7016;48.172;8.058;2023-02-18T17:47:15;12.90;99.90
13892;DHT22;7016;48.172;8.058;2023-02-18T17:49:40;13.00;99.90
13892;DHT22;7016;48.172;8.058;2023-02-18T17:52:06;12.80;99.90
13892;DHT22;7016;48.172;8.058;2023-02-18T17:54:36;12.90;99.90
13892;DHT22;7016;48.172;8.058;2023-02-18T17:57:02;12.90;99.90
13892;DHT22;7016;48.172;8.058;2023-02-18T17:59:27;12.90;99.90
13892;DHT22;7016;48.172;8.058;2023-02-18T18:01:54;12.90;99.90
13892;DHT22;7016;48.172;8.058;2023-02-18T18:04:20;12.80;99.90
13892;DHT22;7016;48.172;8.058;2023-02-18T18:06:46;12.90;99.90
13892;DHT22;7016;48.172;8.058;2023-02-18T18:09:11;12.80;99.90
13892;DHT22;7016;48.172;8.058;2023-02-18T18:11:37;12.70;99.90
13892;DHT22;7016;48.172;8.058;2023-02-18T18:14:03;12.70;99.90
13892;DHT22;7016;48.172;8.058;2023-02-18T18:16:29;12.70;99.90
13892;DHT22;7016;48.172;8.058;2023-02-18T18:18:55;12.70;99.90
13892;DHT22;7016;48.172;8.058;2023-02-18T18:23:51;12.70;99.90
13892;DHT22;7016;48.172;8.058;2023-02-18T18:26:17;12.60;99.90
13892;DHT22;7016;48.172;8.058;2023-02-18T18:28:43;12.70;99.90
13892;DHT22;7016;48.172;8.058;2023-02-18T18:31:13;12.70;99.90
13892;DHT22;7016;48.172;8.058;2023-02-18T18:33:40;12.70;99.90
13892;DHT22;7016;48.172;8.058;2023-02-18T18:36:06;12.60;99.90
13892;DHT22;7016;48.172;8.058;2023-02-18T18:38:32;12.70;99.90
13892;DHT22;7016;48.172;8.058;2023-02-18T18:40:57;12.70;99.90
13892;DHT22;7016;48.172;8.058;2023-02-18T18:43:29;12.60;99.90
13892;DHT22;7016;48.172;8.058;2023-02-18T18:45:55;12.60;99.90
13892;DHT22;7016;48.172;8.058;2023-02-18T18:48:22;12.60;99.90
13892;DHT22;7016;48.172;8.058;2023-02-18T18:50:49;12.50;99.90
13892;DHT22;7016;48.172;8.058;2023-02-18T18:53:26;12.50;99.90
13892;DHT22;7016;48.172;8.058;2023-02-18T18:55:56;12.50;99.90
13892;DHT22;7016;48.172;8.058;2023-02-18T18:58:22;12.50;99.90
13892;DHT22;7016;48.172;8.058;2023-02-18T19:00:59;12.60;99.90
13892;DHT22;7016;48.172;8.058;2023-02-18T19:03:27;12.50;99.90
13892;DHT22;7016;48.172;8.058;2023-02-18T19:05:53;12.40;99.90